Time;durP1;ratioP1;P1;durP2;ratioP2;P2;SDS_P1;SDS_P2;PMS_P1;PMS_P2;Temp;Humidity;BMP_temperature;BMP_pressure;BME280_temperature;BME280_humidity;BME280_pressure;Samples;Min_cycle;Max_cycle;Signal;HPM_P1;HPM_P2
2020/12/26 00:01:29;;;;;;;1.70;1.50;;;3.30;98.20;;;;;;5013410;28;20503;-77
2020/12/26 00:03:56;;;;;;;1.70;1.40;;;3.30;98.20;;;;;;5017283;28;20488;-77
2020/12/26 00:06:24;;;;;;;1.63;1.40;;;3.30;98.20;;;;;;5017832;28;20488;-77
2020/12/26 00:08:51;;;;;;;1.60;1.40;;;3.30;98.20;;;;;;5019030;28;21008;-77
2020/12/26 00:11:20;;;;;;;1.70;1.40;;;3.30;98.20;;;;;;5013015;28;20946;-77
2020/12/26 00:13:51;;;;;;;1.70;1.40;;;3.30;98.20;;;;;;5015259;28;20512;-77
2020/12/26 00:16:18;;;;;;;1.70;1.60;;;3.30;98.20;;;;;;5016689;28;20475;-77
2020/12/26 00:18:46;;;;;;;1.70;1.50;;;3.30;98.20;;;;;;5018725;28;20639;-77
2020/12/26 00:21:14;;;;;;;1.70;1.50;;;3.30;98.20;;;;;;5015039;28;20929;-77
2020/12/26 00:23:41;;;;;;;1.63;1.40;;;3.30;98.20;;;;;;5023772;28;21017;-77
2020/12/26 00:26:08;;;;;;;1.70;1.50;;;3.30;98.20;;;;;;5018284;28;20690;-77
2020/12/26 00:28:35;;;;;;;1.70;1.50;;;3.30;98.20;;;;;;5014374;28;20551;-78
2020/12/26 00:31:02;;;;;;;1.63;1.40;;;3.30;98.20;;;;;;5013327;28;20484;-77
2020/12/26 00:33:30;;;;;;;1.70;1.50;;;3.30;98.20;;;;;;5016631;28;20489;-77
2020/12/26 00:35:56;;;;;;;1.70;1.50;;;3.30;98.20;;;;;;5015294;28;20497;-77
2020/12/26 00:38:23;;;;;;;1.70;1.40;;;3.30;98.20;;;;;;5012608;28;20892;-77
2020/12/26 00:40:49;;;;;;;1.60;1.40;;;3.40;98.20;;;;;;5014684;28;20504;-77
2020/12/26 00:43:35;;;;;;;1.70;1.40;;;3.30;98.20;;;;;;5013970;28;20515;-77
2020/12/26 00:46:05;;;;;;;1.67;1.50;;;3.30;98.20;;;;;;5014855;28;20487;-77
2020/12/26 00:48:31;;;;;;;3.17;2.87;;;3.30;98.20;;;;;;5016657;28;20978;-78
2020/12/26 00:50:58;;;;;;;1.60;1.40;;;3.40;98.20;;;;;;5015121;28;20472;-77
2020/12/26 00:53:24;;;;;;;1.70;1.53;;;3.40;98.20;;;;;;5019086;28;20898;-78
2020/12/26 00:55:51;;;;;;;1.70;1.40;;;3.40;98.20;;;;;;5021495;28;20979;-77
2020/12/26 00:58:18;;;;;;;1.70;1.50;;;3.40;98.20;;;;;;5024045;28;21017;-77
2020/12/26 01:00:44;;;;;;;1.67;1.40;;;3.40;98.20;;;;;;5023756;28;20464;-77
2020/12/26 01:03:11;;;;;;;1.63;1.40;;;3.40;98.20;;;;;;5024068;28;20468;-77
2020/12/26 01:05:38;;;;;;;1.63;1.40;;;3.40;98.20;;;;;;5024473;28;20460;-77
2020/12/26 01:08:04;;;;;;;1.80;1.70;;;3.40;98.20;;;;;;5024080;28;20455;-78
2020/12/26 01:10:31;;;;;;;1.67;1.40;;;3.40;98.20;;;;;;5024400;28;20467;-77
2020/12/26 01:12:57;;;;;;;1.70;1.50;;;3.40;98.20;;;;;;5023744;28;20548;-78
2020/12/26 01:15:24;;;;;;;1.67;1.40;;;3.40;98.20;;;;;;5023501;28;20512;-77
2020/12/26 01:17:50;;;;;;;1.60;1.50;;;3.40;98.20;;;;;;5023441;28;20829;-77
2020/12/26 01:20:20;;;;;;;1.70;1.50;;;3.40;98.20;;;;;;5025535;28;20456;-77
2020/12/26 01:22:47;;;;;;;1.60;1.30;;;3.40;98.20;;;;;;5024537;28;20460;-77
2020/12/26 01:25:13;;;;;;;1.70;1.50;;;3.40;98.20;;;;;;5022953;28;20515;-78
2020/12/26 01:27:40;;;;;;;1.70;1.50;;;3.40;98.20;;;;;;5022599;28;20472;-78
2020/12/26 01:30:07;;;;;;;1.70;1.40;;;3.40;98.20;;;;;;5022612;28;20488;-77
2020/12/26 01:32:33;;;;;;;1.63;1.30;;;3.40;98.20;;;;;;5022709;28;20468;-77
2020/12/26 01:35:00;;;;;;;1.70;1.50;;;3.40;98.20;;;;;;5022474;28;20489;-78
2020/12/26 01:37:28;;;;;;;1.70;1.50;;;3.40;98.20;;;;;;5022970;28;20484;-78
2020/12/26 01:39:55;;;;;;;1.70;1.50;;;3.40;98.20;;;;;;5023758;28;20469;-77
2020/12/26 01:42:21;;;;;;;1.67;1.50;;;3.40;98.20;;;;;;5023434;28;20469;-78
2020/12/26 01:44:48;;;;;;;1.60;1.30;;;3.40;98.20;;;;;;5023709;28;21151;-77
2020/12/26 01:47:15;;;;;;;1.60;1.50;;;3.40;98.20;;;;;;5017162;28;20610;-77
2020/12/26 01:49:42;;;;;;;1.70;1.60;;;3.40;98.20;;;;;;5016782;28;20460;-77
2020/12/26 01:52:10;;;;;;;1.60;1.40;;;3.40;98.20;;;;;;5014513;28;20499;-77
2020/12/26 01:54:40;;;;;;;1.63;1.40;;;3.40;98.20;;;;;;5012340;28;20492;-78
2020/12/26 01:57:07;;;;;;;1.63;1.40;;;3.40;98.20;;;;;;5010629;28;20460;-78
2020/12/26 01:59:34;;;;;;;1.70;1.40;;;3.40;98.20;;;;;;5014515;28;20552;-78
2020/12/26 02:02:07;;;;;;;1.70;1.50;;;3.40;98.20;;;;;;5014721;28;20540;-78
2020/12/26 02:04:33;;;;;;;1.70;1.50;;;3.40;98.20;;;;;;5007808;28;20495;-78
2020/12/26 02:07:02;;;;;;;1.70;1.60;;;3.40;98.20;;;;;;5013810;28;20492;-77
2020/12/26 02:09:29;;;;;;;1.70;1.50;;;3.40;98.20;;;;;;5016466;28;20742;-78
2020/12/26 02:11:56;;;;;;;1.67;1.40;;;3.40;98.20;;;;;;5010482;28;20551;-78
2020/12/26 02:14:22;;;;;;;1.67;1.40;;;3.40;98.20;;;;;;5006604;28;20488;-78
2020/12/26 02:16:50;;;;;;;1.67;1.50;;;3.30;98.20;;;;;;5018722;28;20483;-77
2020/12/26 02:19:18;;;;;;;1.70;1.40;;;3.30;98.20;;;;;;5018960;28;20564;-78
2020/12/26 02:21:45;;;;;;;1.70;1.53;;;3.30;98.20;;;;;;5013184;28;20461;-78
2020/12/26 02:26:53;;;;;;;1.63;1.40;;;3.30;98.20;;;;;;5011975;28;20476;-78
2020/12/26 02:29:19;;;;;;;1.70;1.60;;;3.30;98.20;;;;;;5013396;28;20939;-78
2020/12/26 02:31:46;;;;;;;1.70;1.40;;;3.30;98.20;;;;;;5013540;28;20464;-78
2020/12/26 02:34:12;;;;;;;1.70;1.50;;;3.30;98.20;;;;;;5014521;28;20524;-77
2020/12/26 02:36:39;;;;;;;1.60;1.40;;;3.30;98.20;;;;;;5013682;28;20476;-78
2020/12/26 02:39:07;;;;;;;1.63;1.40;;;3.30;98.20;;;;;;5013349;28;20516;-78
2020/12/26 02:41:35;;;;;;;1.70;1.53;;;3.30;98.20;;;;;;5012819;28;20607;-77
2020/12/26 02:44:01;;;;;;;1.63;1.40;;;3.40;98.20;;;;;;5013678;28;21042;-78
2020/12/26 02:46:28;;;;;;;1.70;1.50;;;3.30;98.20;;;;;;5010850;28;20473;-78
2020/12/26 02:48:54;;;;;;;1.70;1.50;;;3.30;98.20;;;;;;5015945;28;20499;-78
2020/12/26 02:51:21;;;;;;;1.63;1.50;;;3.30;98.20;;;;;;5016448;28;20503;-78
2020/12/26 02:53:47;;;;;;;1.70;1.50;;;3.30;98.20;;;;;;5016934;28;20580;-78
2020/12/26 02:56:14;;;;;;;1.70;1.50;;;3.30;98.20;;;;;;5017442;28;20496;-78
2020/12/26 02:58:41;;;;;;;1.70;1.40;;;3.30;98.20;;;;;;5017502;28;20480;-78
2020/12/26 03:01:07;;;;;;;1.70;1.40;;;3.30;98.20;;;;;;5017798;28;20500;-78
2020/12/26 03:03:34;;;;;;;1.60;1.40;;;3.30;98.20;;;;;;5017302;28;20513;-78
2020/12/26 03:06:01;;;;;;;1.70;1.60;;;3.30;98.20;;;;;;5020826;28;20464;-76
2020/12/26 03:08:28;;;;;;;1.70;1.60;;;3.30;98.20;;;;;;5027394;28;20658;-76
2020/12/26 03:10:54;;;;;;;1.70;1.40;;;3.30;98.20;;;;;;5030644;28;20855;-76
2020/12/26 03:13:21;;;;;;;1.60;1.40;;;3.40;98.20;;;;;;5029779;28;20463;-77
2020/12/26 03:15:48;;;;;;;1.63;1.40;;;3.40;98.20;;;;;;5026762;28;20490;-76
2020/12/26 03:18:14;;;;;;;1.70;1.47;;;3.40;98.20;;;;;;5028608;28;20477;-76
2020/12/26 03:20:41;;;;;;;1.70;1.50;;;3.40;98.20;;;;;;5029956;28;20603;-76
2020/12/26 03:23:07;;;;;;;1.60;1.40;;;3.40;98.20;;;;;;5028892;28;20746;-76
2020/12/26 03:25:34;;;;;;;1.67;1.43;;;3.40;98.20;;;;;;5029361;28;20481;-76
2020/12/26 03:28:00;;;;;;;1.70;1.60;;;3.40;98.20;;;;;;5029463;28;20460;-76
2020/12/26 03:30:27;;;;;;;1.70;1.50;;;3.40;98.20;;;;;;5028802;28;20468;-77
2020/12/26 03:32:54;;;;;;;1.67;1.40;;;3.40;98.20;;;;;;5029474;28;20460;-76
2020/12/26 03:35:20;;;;;;;1.77;1.67;;;3.40;98.20;;;;;;5029190;28;20481;-76
2020/12/26 03:37:47;;;;;;;1.70;1.40;;;3.40;98.20;;;;;;5029842;28;20457;-77
2020/12/26 03:40:14;;;;;;;1.70;1.60;;;3.40;98.20;;;;;;5032042;28;20537;-77
2020/12/26 03:42:40;;;;;;;1.67;1.43;;;3.40;98.20;;;;;;5032644;28;20460;-76
2020/12/26 03:45:07;;;;;;;1.63;1.40;;;3.40;98.20;;;;;;5029240;28;20480;-76
2020/12/26 03:47:34;;;;;;;1.70;1.50;;;3.40;98.20;;;;;;5019149;28;20468;-76
2020/12/26 03:50:01;;;;;;;1.70;1.50;;;3.40;98.20;;;;;;5014105;28;20480;-76
2020/12/26 03:52:28;;;;;;;1.70;1.50;;;3.40;98.20;;;;;;5008537;28;20540;-76
2020/12/26 03:54:54;;;;;;;1.60;1.40;;;3.40;98.20;;;;;;5022040;28;20490;-76
2020/12/26 03:57:21;;;;;;;1.70;1.50;;;3.40;98.20;;;;;;5014995;28;20757;-76
2020/12/26 03:59:47;;;;;;;1.60;1.40;;;3.40;98.20;;;;;;5018477;28;20504;-76
2020/12/26 04:02:14;;;;;;;1.60;1.40;;;3.40;98.20;;;;;;5027016;28;20469;-77
2020/12/26 04:04:40;;;;;;;1.70;1.60;;;3.40;98.20;;;;;;5027335;28;20878;-76
2020/12/26 04:07:08;;;;;;;1.63;1.40;;;3.40;98.20;;;;;;5027087;28;20465;-76
2020/12/26 04:09:34;;;;;;;1.70;1.50;;;3.40;98.20;;;;;;5026448;28;20479;-76
2020/12/26 04:12:00;;;;;;;1.70;1.40;;;3.40;98.20;;;;;;5025098;28;20503;-76
2020/12/26 04:14:27;;;;;;;1.63;1.37;;;3.40;98.20;;;;;;5026591;28;20481;-76
2020/12/26 04:16:57;;;;;;;1.70;1.50;;;3.40;98.20;;;;;;5027231;28;20484;-76
2020/12/26 04:19:23;;;;;;;1.63;1.40;;;3.40;98.20;;;;;;5024167;28;20562;-77
2020/12/26 04:21:50;;;;;;;1.63;1.40;;;3.50;98.20;;;;;;5026194;28;20460;-76
2020/12/26 04:24:17;;;;;;;1.67;1.40;;;3.50;98.20;;;;;;5025360;28;20530;-77
2020/12/26 04:26:44;;;;;;;1.70;1.50;;;3.50;98.20;;;;;;5027927;28;20464;-76
2020/12/26 04:29:15;;;;;;;1.70;1.40;;;3.50;98.20;;;;;;5026907;28;20449;-76
2020/12/26 04:31:41;;;;;;;1.70;1.40;;;3.50;98.20;;;;;;5026608;28;20456;-76
2020/12/26 04:34:08;;;;;;;1.67;1.40;;;3.50;98.20;;;;;;5026112;28;20542;-76
2020/12/26 04:36:34;;;;;;;1.67;1.40;;;3.50;98.20;;;;;;5026526;28;20457;-77
2020/12/26 04:39:01;;;;;;;1.70;1.40;;;3.50;98.20;;;;;;5026401;28;20600;-76
2020/12/26 04:41:28;;;;;;;1.70;1.60;;;3.50;98.20;;;;;;5024264;28;20465;-76
2020/12/26 04:43:55;;;;;;;1.73;1.63;;;3.50;98.20;;;;;;5026237;28;20484;-76
2020/12/26 04:46:47;;;;;;;1.67;1.37;;;3.50;98.20;;;;;;5025438;28;20464;-77
2020/12/26 04:49:15;;;;;;;1.70;1.53;;;3.50;98.20;;;;;;5022892;28;20468;-78
2020/12/26 04:51:43;;;;;;;1.60;1.30;;;3.50;98.20;;;;;;5024606;28;20487;-76
2020/12/26 04:54:14;;;;;;;1.70;1.50;;;3.50;98.20;;;;;;5021636;28;20508;-76
2020/12/26 04:56:44;;;;;;;1.70;1.40;;;3.50;98.20;;;;;;5025800;28;21017;-76
2020/12/26 04:59:11;;;;;;;1.60;1.40;;;3.60;98.20;;;;;;5025878;28;20520;-76
2020/12/26 05:01:40;;;;;;;1.70;1.40;;;3.60;98.20;;;;;;5026139;28;20498;-76
2020/12/26 05:04:07;;;;;;;1.67;1.37;;;3.60;98.20;;;;;;5026396;28;20484;-76
2020/12/26 05:06:45;;;;;;;1.67;1.40;;;3.60;98.20;;;;;;5024549;28;20468;-77
2020/12/26 05:09:12;;;;;;;1.70;1.57;;;3.60;98.20;;;;;;5025400;28;20472;-76
2020/12/26 05:11:38;;;;;;;1.60;1.40;;;3.60;98.20;;;;;;5026726;28;20461;-76
2020/12/26 05:14:08;;;;;;;1.70;1.50;;;3.60;98.20;;;;;;5022953;28;20519;-76
2020/12/26 05:16:35;;;;;;;1.60;1.40;;;3.60;98.20;;;;;;5026881;28;21062;-76
2020/12/26 05:19:02;;;;;;;1.70;1.50;;;3.60;98.20;;;;;;5027296;28;20516;-76
2020/12/26 05:21:28;;;;;;;1.60;1.40;;;3.60;98.20;;;;;;5025529;28;20465;-76
2020/12/26 05:24:03;;;;;;;1.63;1.40;;;3.60;98.20;;;;;;5026535;28;20477;-76
2020/12/26 05:26:31;;;;;;;1.67;1.47;;;3.60;98.20;;;;;;5026286;28;20453;-76
2020/12/26 05:29:02;;;;;;;1.70;1.40;;;3.60;98.20;;;;;;5026512;28;20464;-76
2020/12/26 05:32:00;;;;;;;1.60;1.40;;;3.60;98.20;;;;;;5037934;28;20479;-77
2020/12/26 05:34:32;;;;;;;1.70;1.30;;;3.70;98.20;;;;;;4984067;28;20474;-76
2020/12/26 05:36:59;;;;;;;1.60;1.40;;;3.60;98.20;;;;;;5033688;28;20463;-76
2020/12/26 05:39:30;;;;;;;1.67;1.50;;;3.60;98.20;;;;;;5045682;28;20475;-76
2020/12/26 05:41:56;;;;;;;1.70;1.50;;;3.60;98.20;;;;;;5046045;28;20805;-76
2020/12/26 05:44:28;;;;;;;1.63;1.30;;;3.60;98.20;;;;;;5046001;28;20482;-77
2020/12/26 05:46:55;;;;;;;1.90;1.70;;;3.50;98.20;;;;;;5046367;28;20470;-76
2020/12/26 05:49:29;;;;;;;1.63;1.40;;;3.50;98.20;;;;;;5044946;28;20467;-76
2020/12/26 05:51:58;;;;;;;1.80;1.67;;;3.50;98.20;;;;;;5045492;28;20504;-76
2020/12/26 05:54:27;;;;;;;1.60;1.30;;;3.40;98.20;;;;;;5031690;28;20488;-77
2020/12/26 05:57:11;;;;;;;1.70;1.50;;;3.40;98.20;;;;;;5023957;28;20471;-76
2020/12/26 05:59:39;;;;;;;1.70;1.50;;;3.30;98.20;;;;;;5027088;28;20508;-77
2020/12/26 06:02:26;;;;;;;1.70;1.50;;;3.20;98.20;;;;;;5027191;28;20444;-77
2020/12/26 06:04:56;;;;;;;1.70;1.50;;;3.20;98.20;;;;;;5024332;28;20507;-77
2020/12/26 06:07:24;;;;;;;1.70;1.60;;;3.20;98.20;;;;;;5021382;28;20457;-77
2020/12/26 06:09:53;;;;;;;1.70;1.50;;;3.20;98.20;;;;;;5023337;28;20461;-77
2020/12/26 06:12:21;;;;;;;1.67;1.40;;;3.20;98.20;;;;;;5023515;28;20467;-77
2020/12/26 06:14:48;;;;;;;1.63;1.40;;;3.20;98.20;;;;;;5019962;28;20765;-77
2020/12/26 06:17:22;;;;;;;1.70;1.40;;;3.20;98.20;;;;;;5023099;28;20456;-77
2020/12/26 06:19:58;;;;;;;1.70;1.50;;;3.20;98.20;;;;;;5024590;28;20468;-77
2020/12/26 06:22:25;;;;;;;1.67;1.40;;;3.20;98.20;;;;;;5024790;28;20503;-77
2020/12/26 06:24:54;;;;;;;2.53;2.33;;;3.20;98.20;;;;;;5023786;28;20515;-77
2020/12/26 06:27:25;;;;;;;1.70;1.50;;;3.20;98.20;;;;;;5024078;28;20460;-77
2020/12/26 06:29:51;;;;;;;1.70;1.60;;;3.30;98.20;;;;;;5019239;28;20461;-77
2020/12/26 06:32:20;;;;;;;1.70;1.40;;;3.30;98.20;;;;;;5013700;28;20488;-77
2020/12/26 06:34:52;;;;;;;1.70;1.40;;;3.30;98.20;;;;;;5010444;28;20539;-76
2020/12/26 06:37:22;;;;;;;1.83;1.73;;;3.30;98.20;;;;;;5006114;28;20500;-76
2020/12/26 06:39:48;;;;;;;1.63;1.40;;;3.30;98.20;;;;;;5007501;28;21035;-77
2020/12/26 06:42:17;;;;;;;1.63;1.40;;;3.30;98.20;;;;;;5013390;28;20468;-76
2020/12/26 06:44:44;;;;;;;1.70;1.50;;;3.30;98.20;;;;;;5018730;28;20488;-77
2020/12/26 06:47:36;;;;;;;1.67;1.40;;;3.30;98.20;;;;;;5011943;28;20989;-76
2020/12/26 06:50:22;;;;;;;1.70;1.50;;;3.30;98.20;;;;;;5022767;28;20820;-77
2020/12/26 06:52:53;;;;;;;1.70;1.40;;;3.30;98.20;;;;;;5019487;28;20939;-77
2020/12/26 06:55:40;;;;;;;1.80;1.63;;;3.30;98.20;;;;;;5034124;28;20476;-77
2020/12/26 06:58:09;;;;;;;1.67;1.43;;;3.30;98.20;;;;;;5017926;28;20490;-78
2020/12/26 07:00:37;;;;;;;1.70;1.40;;;3.20;98.20;;;;;;5023068;28;20477;-77
2020/12/26 07:03:31;;;;;;;1.67;1.40;;;3.20;98.20;;;;;;5018987;28;20931;-77
2020/12/26 07:05:58;;;;;;;1.70;1.40;;;3.20;98.20;;;;;;5017881;28;20467;-77
2020/12/26 07:08:44;;;;;;;1.70;1.50;;;3.20;98.20;;;;;;5018220;28;21085;-78
2020/12/26 07:11:23;;;;;;;1.70;1.40;;;3.20;98.20;;;;;;5019294;28;20464;-77
2020/12/26 07:13:51;;;;;;;1.70;1.43;;;3.20;98.20;;;;;;5020490;28;20479;-77
2020/12/26 07:16:44;;;;;;;1.70;1.57;;;3.20;98.20;;;;;;5015331;28;20884;-78
2020/12/26 07:19:37;;;;;;;1.70;1.40;;;3.10;98.20;;;;;;5041373;22;20583;-77
2020/12/26 07:22:12;;;;;;;1.70;1.40;;;3.10;98.20;;;;;;5006768;28;20978;-78
2020/12/26 07:24:41;;;;;;;1.70;1.50;;;3.10;98.20;;;;;;5011105;28;20475;-78
2020/12/26 07:27:27;;;;;;;1.70;1.50;;;3.10;98.20;;;;;;5019934;28;20469;-76
2020/12/26 07:30:07;;;;;;;1.70;1.40;;;3.00;98.20;;;;;;5021693;28;20463;-77
2020/12/26 07:32:48;;;;;;;1.67;1.40;;;3.00;98.20;;;;;;5014970;28;20460;-77
2020/12/26 07:35:32;;;;;;;1.70;1.50;;;2.90;98.20;;;;;;5017800;28;20532;-76
2020/12/26 07:38:01;;;;;;;1.70;1.50;;;2.90;98.20;;;;;;5021051;28;20472;-77
2020/12/26 07:40:34;;;;;;;1.70;1.50;;;2.80;98.20;;;;;;5018546;28;20469;-79
2020/12/26 07:43:04;;;;;;;1.80;1.70;;;2.80;98.20;;;;;;5018171;28;20480;-76
2020/12/26 07:45:35;;;;;;;1.70;1.40;;;2.80;98.20;;;;;;5019322;28;20488;-78
2020/12/26 07:48:03;;;;;;;1.80;1.70;;;2.80;98.20;;;;;;5019595;28;20474;-79
2020/12/26 07:50:31;;;;;;;1.70;1.60;;;2.80;98.20;;;;;;5019263;28;20514;-79
2020/12/26 07:52:59;;;;;;;1.70;1.43;;;2.70;98.20;;;;;;5019369;28;20456;-78
2020/12/26 07:55:27;;;;;;;1.70;1.50;;;2.70;98.20;;;;;;5029129;28;20483;-76
2020/12/26 07:58:07;;;;;;;1.80;1.70;;;2.70;98.20;;;;;;5014536;28;20472;-76
2020/12/26 08:00:36;;;;;;;1.70;1.50;;;2.70;98.20;;;;;;5025642;28;20558;-76
2020/12/26 08:03:05;;;;;;;1.70;1.50;;;2.60;98.20;;;;;;5023184;28;20540;-76
2020/12/26 08:05:33;;;;;;;1.70;1.60;;;2.60;98.20;;;;;;5022445;28;20500;-75
2020/12/26 08:08:02;;;;;;;1.70;1.60;;;2.60;98.20;;;;;;5010612;28;20472;-76
2020/12/26 08:10:31;;;;;;;1.70;1.40;;;2.60;98.20;;;;;;5019553;28;20467;-76
2020/12/26 08:13:00;;;;;;;1.70;1.50;;;2.60;98.20;;;;;;5019454;28;20484;-77
2020/12/26 08:15:34;;;;;;;1.60;1.50;;;2.60;98.20;;;;;;5018628;28;20481;-76
2020/12/26 08:18:05;;;;;;;1.70;1.60;;;2.60;98.20;;;;;;5017854;28;20488;-77
2020/12/26 08:20:49;;;;;;;1.70;1.50;;;2.60;98.20;;;;;;5014222;28;20494;-77
2020/12/26 08:23:21;;;;;;;1.70;1.50;;;2.60;98.20;;;;;;5004387;28;20542;-76
2020/12/26 08:25:50;;;;;;;1.80;1.70;;;2.60;98.20;;;;;;5003266;28;20469;-77
2020/12/26 08:28:23;;;;;;;1.70;1.57;;;2.60;98.20;;;;;;5011945;28;20461;-76
2020/12/26 08:30:54;;;;;;;1.70;1.40;;;2.60;98.20;;;;;;5010282;28;20475;-77
2020/12/26 08:33:30;;;;;;;1.70;1.50;;;2.70;98.20;;;;;;5009439;28;20467;-77
2020/12/26 08:36:08;;;;;;;1.70;1.43;;;2.70;98.20;;;;;;5005399;28;21003;-77
2020/12/26 08:38:44;;;;;;;1.93;1.73;;;2.80;98.20;;;;;;5019636;28;20480;-77
2020/12/26 08:41:19;;;;;;;1.70;1.60;;;2.80;98.20;;;;;;5013004;28;20468;-76
2020/12/26 08:43:46;;;;;;;1.67;1.50;;;2.80;98.20;;;;;;5010843;28;20580;-76
2020/12/26 08:46:28;;;;;;;1.70;1.50;;;2.90;98.20;;;;;;5014079;28;20560;-76
2020/12/26 08:49:04;;;;;;;1.70;1.30;;;3.00;98.20;;;;;;5012741;28;20469;-77
2020/12/26 08:51:32;;;;;;;1.70;1.50;;;3.10;98.20;;;;;;5012437;28;20894;-76
2020/12/26 08:53:59;;;;;;;1.70;1.40;;;3.10;98.20;;;;;;5025558;28;20480;-77
2020/12/26 08:56:32;;;;;;;1.70;1.50;;;3.20;98.20;;;;;;5012125;28;20456;-77
2020/12/26 08:59:01;;;;;;;1.70;1.50;;;3.30;98.20;;;;;;5011643;28;20492;-77
2020/12/26 09:01:32;;;;;;;1.70;1.50;;;3.40;98.20;;;;;;5008150;28;20460;-77
2020/12/26 09:04:01;;;;;;;1.67;1.40;;;3.40;98.20;;;;;;5012906;28;20739;-77
2020/12/26 09:06:38;;;;;;;1.70;1.50;;;3.50;98.20;;;;;;5006962;28;20497;-77
2020/12/26 09:09:16;;;;;;;1.70;1.40;;;3.50;98.20;;;;;;5013343;28;20525;-77
2020/12/26 09:11:45;;;;;;;1.70;1.50;;;3.60;98.20;;;;;;5012575;28;20499;-77
2020/12/26 09:14:18;;;;;;;1.70;1.50;;;3.60;98.20;;;;;;5015143;28;20520;-76
2020/12/26 09:16:46;;;;;;;1.70;1.50;;;3.60;98.20;;;;;;5012182;28;20461;-77
2020/12/26 09:19:16;;;;;;;1.70;1.50;;;3.60;98.20;;;;;;5010163;28;20560;-76
2020/12/26 09:21:45;;;;;;;1.70;1.40;;;3.70;98.20;;;;;;4999769;28;20500;-76
2020/12/26 09:24:32;;;;;;;1.70;1.40;;;3.70;98.20;;;;;;5020495;28;20586;-77
2020/12/26 09:27:17;;;;;;;1.70;1.50;;;3.80;98.20;;;;;;5003277;28;20865;-76
2020/12/26 09:29:51;;;;;;;1.70;1.50;;;3.80;98.20;;;;;;5008405;28;20457;-77
2020/12/26 09:32:19;;;;;;;1.70;1.50;;;3.90;98.20;;;;;;5005601;28;20472;-77
2020/12/26 09:34:49;;;;;;;1.67;1.40;;;3.90;98.20;;;;;;5007309;28;20571;-76
2020/12/26 09:37:15;;;;;;;1.70;1.50;;;4.00;98.20;;;;;;5016609;28;20468;-77
2020/12/26 09:39:42;;;;;;;1.70;1.40;;;4.00;98.20;;;;;;5013604;28;20489;-76
2020/12/26 09:42:15;;;;;;;1.70;1.40;;;4.10;98.20;;;;;;5020728;28;20788;-76
2020/12/26 09:44:41;;;;;;;1.63;1.40;;;4.10;98.20;;;;;;5008351;28;20484;-76
2020/12/26 09:47:08;;;;;;;1.70;1.40;;;4.10;98.20;;;;;;5008743;28;20527;-76
2020/12/26 09:49:35;;;;;;;1.67;1.40;;;4.20;98.20;;;;;;5014567;28;20701;-76
2020/12/26 09:52:02;;;;;;;1.63;1.40;;;4.30;98.20;;;;;;5018606;28;21010;-77
2020/12/26 09:54:32;;;;;;;1.60;1.40;;;4.30;98.20;;;;;;5013289;28;20499;-76
2020/12/26 09:57:01;;;;;;;1.67;1.40;;;4.40;98.20;;;;;;5017167;28;20952;-76
2020/12/26 09:59:31;;;;;;;1.60;1.40;;;4.40;98.20;;;;;;5012642;28;20602;-76
2020/12/26 10:01:57;;;;;;;1.70;1.43;;;4.40;98.20;;;;;;5037565;23;20495;-76
2020/12/26 10:04:24;;;;;;;1.63;1.40;;;4.50;98.20;;;;;;5034926;28;20490;-76
2020/12/26 10:06:51;;;;;;;1.70;1.47;;;4.50;98.20;;;;;;5027761;28;20464;-75
2020/12/26 10:09:20;;;;;;;1.67;1.40;;;4.60;98.20;;;;;;5021750;28;20491;-75
2020/12/26 10:11:47;;;;;;;1.70;1.50;;;4.60;98.20;;;;;;5039138;28;20809;-76
2020/12/26 10:14:16;;;;;;;1.60;1.30;;;4.60;98.20;;;;;;5026956;28;20483;-76
2020/12/26 10:16:48;;;;;;;1.63;1.40;;;4.70;98.20;;;;;;5028892;28;20464;-76
2020/12/26 10:19:15;;;;;;;1.60;1.30;;;4.70;98.20;;;;;;5022485;28;20483;-76
2020/12/26 10:21:45;;;;;;;1.60;1.30;;;4.70;98.20;;;;;;5022071;28;20778;-75
2020/12/26 10:24:12;;;;;;;1.67;1.30;;;4.70;98.20;;;;;;5021730;28;20487;-76
2020/12/26 10:26:39;;;;;;;1.60;1.40;;;4.80;98.20;;;;;;5032523;28;20759;-75
2020/12/26 10:29:21;;;;;;;1.70;1.50;;;4.70;98.20;;;;;;5025270;28;20495;-76
2020/12/26 10:31:54;;;;;;;1.70;1.43;;;4.70;98.20;;;;;;5025541;28;20463;-76
2020/12/26 10:34:28;;;;;;;1.70;1.50;;;4.70;98.20;;;;;;5022494;28;20991;-76
2020/12/26 10:36:54;;;;;;;1.67;1.40;;;4.70;98.20;;;;;;5024665;28;21020;-76
2020/12/26 10:39:22;;;;;;;1.60;1.30;;;4.70;98.20;;;;;;5031244;28;20903;-75
2020/12/26 10:41:54;;;;;;;1.70;1.50;;;4.70;98.20;;;;;;5024320;28;20538;-76
2020/12/26 10:44:30;;;;;;;1.70;1.50;;;4.70;98.20;;;;;;5031336;28;21038;-75
2020/12/26 10:47:45;;;;;;;1.60;1.40;;;4.70;98.20;;;;;;5032850;28;20494;-76
2020/12/26 10:50:15;;;;;;;1.70;1.40;;;4.70;98.20;;;;;;5026102;28;20472;-76
2020/12/26 10:52:42;;;;;;;1.63;1.30;;;4.70;98.20;;;;;;5027259;28;20471;-75
2020/12/26 10:55:15;;;;;;;1.70;1.50;;;4.70;98.20;;;;;;5036795;28;20567;-75
2020/12/26 10:57:43;;;;;;;1.60;1.30;;;4.70;98.20;;;;;;5023861;28;20472;-76
2020/12/26 11:00:10;;;;;;;1.60;1.40;;;4.70;98.20;;;;;;5030780;28;20488;-76
2020/12/26 11:02:41;;;;;;;1.70;1.40;;;4.70;98.20;;;;;;5026990;28;20597;-76
2020/12/26 11:05:09;;;;;;;1.60;1.30;;;4.70;98.20;;;;;;5023638;28;20872;-76
2020/12/26 11:07:43;;;;;;;1.60;1.40;;;4.70;98.20;;;;;;5025023;28;20459;-76
2020/12/26 11:10:11;;;;;;;1.70;1.50;;;4.70;98.20;;;;;;5016724;28;20460;-76
2020/12/26 11:12:38;;;;;;;1.63;1.40;;;4.70;98.20;;;;;;5022022;28;20989;-76
2020/12/26 11:15:04;;;;;;;1.67;1.40;;;4.80;98.20;;;;;;5031893;28;20921;-75
2020/12/26 11:17:31;;;;;;;1.70;1.47;;;4.80;98.20;;;;;;5027085;28;20536;-75
2020/12/26 11:19:59;;;;;;;1.60;1.40;;;4.80;98.20;;;;;;5025766;28;20520;-75
2020/12/26 11:22:30;;;;;;;1.60;1.40;;;4.90;98.20;;;;;;5021615;28;20467;-76
2020/12/26 11:25:05;;;;;;;1.67;1.40;;;4.90;98.20;;;;;;5031585;28;20489;-75
2020/12/26 11:27:33;;;;;;;1.67;1.47;;;4.90;98.20;;;;;;5029986;28;20467;-75
2020/12/26 11:30:00;;;;;;;1.63;1.40;;;4.90;98.20;;;;;;5025001;28;21032;-76
2020/12/26 11:32:34;;;;;;;1.70;1.40;;;5.00;98.20;;;;;;5026703;28;20540;-75
2020/12/26 11:35:01;;;;;;;1.60;1.30;;;5.00;98.20;;;;;;5025610;28;20487;-76
2020/12/26 11:37:30;;;;;;;1.67;1.30;;;5.00;98.20;;;;;;5026287;28;20471;-75
2020/12/26 11:39:59;;;;;;;1.67;1.40;;;5.10;98.20;;;;;;5028764;28;20502;-75
2020/12/26 11:42:26;;;;;;;1.63;1.37;;;5.10;98.20;;;;;;5020828;28;20500;-76
2020/12/26 11:44:53;;;;;;;1.63;1.40;;;5.10;98.20;;;;;;5041155;28;20489;-75
2020/12/26 11:47:19;;;;;;;1.70;1.60;;;5.10;98.20;;;;;;5039000;28;20469;-76
2020/12/26 11:49:52;;;;;;;1.70;1.40;;;5.20;98.20;;;;;;5032436;28;20474;-75
2020/12/26 11:52:28;;;;;;;1.70;1.50;;;5.20;98.20;;;;;;5037193;28;20656;-76
2020/12/26 11:54:59;;;;;;;1.60;1.30;;;5.20;98.20;;;;;;5035719;28;20479;-75
2020/12/26 11:57:39;;;;;;;1.70;1.30;;;5.20;98.20;;;;;;5034172;28;20459;-75
2020/12/26 12:00:10;;;;;;;1.67;1.30;;;5.20;98.20;;;;;;5037835;28;20479;-75
2020/12/26 12:02:39;;;;;;;1.67;1.40;;;5.20;98.20;;;;;;5045089;28;20494;-75
2020/12/26 12:05:10;;;;;;;1.67;1.30;;;5.20;98.20;;;;;;5042321;28;20580;-75
2020/12/26 12:07:40;;;;;;;1.70;1.40;;;5.30;98.20;;;;;;5033115;28;20506;-75
2020/12/26 12:10:11;;;;;;;1.70;1.40;;;5.40;98.20;;;;;;5031008;28;20518;-75
2020/12/26 12:12:38;;;;;;;1.70;1.40;;;5.50;98.20;;;;;;5037130;28;20459;-76
2020/12/26 12:15:14;;;;;;;1.63;1.30;;;5.60;98.20;;;;;;5035618;28;20490;-75
2020/12/26 12:17:45;;;;;;;1.70;1.40;;;5.70;98.20;;;;;;5030851;28;20549;-75
2020/12/26 12:20:11;;;;;;;1.67;1.30;;;5.80;98.20;;;;;;5028252;28;20483;-76
2020/12/26 12:22:42;;;;;;;1.63;1.30;;;5.90;98.20;;;;;;5021079;28;21285;-75
2020/12/26 12:25:17;;;;;;;1.67;1.33;;;5.90;98.20;;;;;;5024644;28;20487;-75
2020/12/26 12:27:43;;;;;;;1.63;1.30;;;6.00;98.20;;;;;;5031074;28;20468;-74
2020/12/26 12:30:13;;;;;;;1.67;1.30;;;6.00;98.20;;;;;;5019378;28;20504;-76
2020/12/26 12:32:40;;;;;;;1.60;1.30;;;6.10;98.20;;;;;;5017979;28;20531;-75
2020/12/26 12:35:07;;;;;;;1.60;1.30;;;6.10;98.20;;;;;;5028442;28;20515;-76
2020/12/26 12:37:34;;;;;;;1.60;1.20;;;6.10;98.20;;;;;;5035170;28;20467;-74
2020/12/26 12:40:01;;;;;;;1.70;1.40;;;6.20;98.20;;;;;;5029576;22;20504;-79
2020/12/26 12:42:28;;;;;;;1.70;1.50;;;6.20;98.20;;;;;;4975450;28;21063;-79
2020/12/26 12:44:54;;;;;;;1.70;1.40;;;6.30;98.20;;;;;;4975206;28;20816;-78
2020/12/26 12:47:22;;;;;;;1.63;1.30;;;6.30;98.20;;;;;;4972432;28;21043;-78
2020/12/26 12:49:50;;;;;;;1.70;1.30;;;6.30;98.20;;;;;;4975901;28;20492;-78
2020/12/26 12:52:16;;;;;;;1.70;1.40;;;6.30;98.20;;;;;;4974024;28;20850;-79
2020/12/26 12:54:43;;;;;;;1.70;1.30;;;6.30;98.20;;;;;;4977044;28;20609;-78
2020/12/26 12:57:09;;;;;;;1.60;1.30;;;6.30;98.20;;;;;;4975469;28;20473;-78
2020/12/26 12:59:36;;;;;;;1.70;1.30;;;6.20;98.20;;;;;;4974055;28;20478;-79
2020/12/26 13:02:03;;;;;;;1.60;1.30;;;6.20;98.20;;;;;;4975971;28;20584;-79
2020/12/26 13:04:29;;;;;;;1.67;1.30;;;6.20;98.20;;;;;;4972834;28;20473;-78
2020/12/26 13:06:57;;;;;;;1.67;1.30;;;6.20;98.20;;;;;;4977884;28;20978;-78
2020/12/26 13:09:24;;;;;;;1.63;1.30;;;6.10;98.20;;;;;;4975503;28;20548;-79
2020/12/26 13:11:51;;;;;;;1.60;1.20;;;6.10;98.20;;;;;;4975569;28;20509;-78
2020/12/26 13:14:18;;;;;;;1.60;1.30;;;6.10;98.20;;;;;;4967688;28;20555;-78